createdAt,value
2018-04-18T22:13:56.568Z,24.79
2018-04-18T22:16:01.349Z,24.80
2018-04-18T22:18:05.866Z,24.80
2018-04-18T22:20:10.816Z,24.79
2018-04-18T22:22:14.944Z,24.78
2018-04-18T22:24:21.212Z,24.79
2018-04-18T22:26:27.125Z,24.77
2018-04-18T22:28:31.145Z,24.78
2018-04-18T22:30:35.196Z,24.76
2018-04-18T22:32:40.144Z,24.75
2018-04-18T22:34:44.297Z,24.75
2018-04-18T22:36:48.552Z,24.76
2018-04-18T22:38:53.102Z,24.77
2018-04-18T22:40:57.094Z,24.78
2018-04-18T22:43:01.333Z,24.77
2018-04-18T22:45:07.075Z,24.78
2018-04-18T22:47:11.759Z,24.79
2018-04-18T22:49:18.899Z,24.76
2018-04-18T22:51:24.612Z,24.75
2018-04-18T22:53:28.461Z,24.76
2018-04-18T22:55:32.343Z,24.74
2018-04-18T22:57:36.577Z,24.75
2018-04-18T22:59:41.009Z,24.76
2018-04-18T23:01:45.204Z,24.73
2018-04-18T23:03:49.424Z,24.73
2018-04-18T23:05:53.660Z,24.73
2018-04-18T23:07:58.076Z,24.76
2018-04-18T23:10:02.471Z,24.72
2018-04-18T23:12:07.235Z,24.70
2018-04-18T23:14:11.709Z,24.70
2018-04-18T23:16:17.929Z,24.70
2018-04-18T23:18:23.012Z,24.69
2018-04-18T23:20:26.854Z,24.68
2018-04-18T23:22:35.606Z,24.00
2018-04-18T23:24:39.524Z,23.42
2018-04-18T23:26:43.446Z,23.01
2018-04-18T23:28:47.722Z,22.46
2018-04-18T23:30:51.969Z,22.59
2018-04-18T23:32:56.076Z,22.57
2018-04-18T23:35:00.580Z,22.96
2018-04-18T23:37:04.792Z,22.72
2018-04-18T23:39:10.040Z,22.68
2018-04-18T23:41:15.448Z,22.73
2018-04-18T23:43:20.425Z,22.88
2018-04-18T23:45:25.244Z,22.90
2018-04-18T23:47:29.476Z,23.05
2018-04-18T23:49:33.376Z,22.92
2018-04-18T23:51:37.568Z,23.19
2018-04-18T23:53:41.963Z,22.95
2018-04-18T23:55:46.067Z,22.69
2018-04-18T23:57:50.195Z,22.78
2018-04-18T23:59:55.099Z,22.87
